createdAt,value
2022-10-25T00:02:47.617Z,100562.47
2022-10-25T00:07:53.738Z,100561.75
2022-10-25T00:13:00.177Z,100559.66
2022-10-25T00:18:08.296Z,100568.19
2022-10-25T00:23:14.417Z,100554.44
2022-10-25T00:28:20.376Z,100550.06
2022-10-25T00:33:27.830Z,100540.91
2022-10-25T00:38:33.971Z,100536.69
2022-10-25T00:43:43.989Z,100538.28
2022-10-25T00:48:59.283Z,100538.13
2022-10-25T00:54:05.687Z,100525.56
2022-10-25T00:59:16.443Z,100517.47
2022-10-25T01:04:28.171Z,100519.22
2022-10-25T01:09:38.039Z,100521.16
2022-10-25T01:14:49.759Z,100516.94
2022-10-25T01:20:29.505Z,100519.19
2022-10-25T01:26:12.240Z,100521.50
2022-10-25T01:31:36.329Z,100522.44
2022-10-25T01:36:48.197Z,100514.41
2022-10-25T01:42:03.136Z,100499.22
2022-10-25T01:47:16.444Z,100488.34
2022-10-25T01:52:24.803Z,100477.53
2022-10-25T01:58:00.116Z,100485.41
2022-10-25T02:03:20.396Z,100498.38
2022-10-25T02:08:36.263Z,100492.13
2022-10-25T02:13:55.976Z,100487.72
2022-10-25T02:19:06.407Z,100479.84
2022-10-25T02:24:18.479Z,100487.13
2022-10-25T02:29:27.728Z,100489.88
2022-10-25T02:34:38.947Z,100490.03
2022-10-25T02:39:45.958Z,100506.84
2022-10-25T02:44:51.987Z,100507.72
2022-10-25T02:49:59.346Z,100514.69
2022-10-25T02:55:05.850Z,100512.94
2022-10-25T03:00:14.952Z,100506.88
2022-10-25T03:05:22.406Z,100500.91
2022-10-25T03:10:28.519Z,100507.16
2022-10-25T03:15:34.294Z,100496.66
2022-10-25T03:20:42.517Z,100503.69
2022-10-25T03:25:49.749Z,100494.91
2022-10-25T03:30:59.203Z,100502.75
2022-10-25T03:36:07.491Z,100495.75
2022-10-25T03:41:13.780Z,100507.16
2022-10-25T03:46:19.607Z,100514.16
2022-10-25T03:51:27.202Z,100505.44
2022-10-25T03:56:33.003Z,100504.72
2022-10-25T04:01:39.075Z,100508.09
2022-10-25T04:06:46.562Z,100503.56
2022-10-25T04:11:52.559Z,100493.88
2022-10-25T04:16:58.578Z,100488.00
2022-10-25T04:22:06.122Z,100483.84
2022-10-25T04:27:12.108Z,100483.19
2022-10-25T04:37:30.275Z,100486.13
2022-10-25T04:42:37.032Z,100499.28
2022-10-25T04:47:42.976Z,100495.16
2022-10-25T04:52:50.571Z,100504.88
2022-10-25T04:57:57.767Z,100503.28
2022-10-25T05:03:03.877Z,100504.44
2022-10-25T05:08:11.580Z,100506.25
2022-10-25T05:13:17.764Z,100508.94
2022-10-25T05:18:28.478Z,100507.41
2022-10-25T05:23:40.407Z,100521.53
2022-10-25T05:28:48.707Z,100519.16
2022-10-25T05:33:57.220Z,100518.38
2022-10-25T05:39:04.962Z,100521.81
2022-10-25T05:44:11.358Z,100524.44
2022-10-25T05:49:17.295Z,100534.22
2022-10-25T05:54:25.161Z,100543.84
2022-10-25T05:59:31.271Z,100549.28
2022-10-25T06:04:37.208Z,100547.59
2022-10-25T06:09:44.566Z,100553.81
2022-10-25T06:14:50.485Z,100550.16
2022-10-25T06:19:56.899Z,100550.91
2022-10-25T06:25:04.565Z,100540.38
2022-10-25T06:30:12.486Z,100537.59
2022-10-25T06:35:18.494Z,100552.13
2022-10-25T06:40:26.181Z,100566.13
2022-10-25T06:45:32.335Z,100570.16
2022-10-25T06:50:38.472Z,100577.88
2022-10-25T06:55:47.467Z,100582.16
2022-10-25T07:00:53.386Z,100569.84
2022-10-25T07:06:01.914Z,100575.94
2022-10-25T07:11:14.249Z,100567.09
2022-10-25T07:16:22.785Z,100574.91
2022-10-25T07:21:29.791Z,100565.19
2022-10-25T07:26:37.421Z,100568.53
2022-10-25T07:31:45.618Z,100560.41
2022-10-25T07:36:51.686Z,100549.56
2022-10-25T07:42:00.248Z,100550.22
2022-10-25T07:47:06.473Z,100542.34
2022-10-25T07:52:14.178Z,100554.53
2022-10-25T07:57:21.770Z,100553.44
2022-10-25T08:02:28.250Z,100558.28
2022-10-25T08:07:34.235Z,100565.94
2022-10-25T08:12:41.822Z,100563.94
2022-10-25T08:17:48.382Z,100571.78
2022-10-25T08:22:54.940Z,100575.34
2022-10-25T08:28:02.326Z,100583.66
2022-10-25T08:33:11.653Z,100580.94
2022-10-25T08:38:17.885Z,100584.41
2022-10-25T08:43:57.731Z,100576.31
2022-10-25T08:49:16.133Z,100575.97
2022-10-25T08:54:29.873Z,100575.91
2022-10-25T08:59:43.459Z,100570.22
2022-10-25T09:04:49.528Z,100570.75
2022-10-25T09:10:06.527Z,100586.38
2022-10-25T09:15:23.229Z,100588.19
2022-10-25T09:20:33.945Z,100592.53
2022-10-25T09:25:52.968Z,100597.78
2022-10-25T09:31:01.473Z,100595.00
2022-10-25T09:36:09.977Z,100593.94
2022-10-25T09:41:21.051Z,100591.88
2022-10-25T09:46:39.627Z,100603.16
2022-10-25T09:52:00.347Z,100596.19
2022-10-25T09:57:06.506Z,100596.41
2022-10-25T10:02:23.016Z,100593.94
2022-10-25T10:07:34.535Z,100597.28
2022-10-25T10:12:47.987Z,100595.41
2022-10-25T10:18:24.594Z,100600.66
2022-10-25T10:23:34.987Z,100591.13
2022-10-25T10:28:48.175Z,100596.84
2022-10-25T10:33:55.776Z,100604.63
2022-10-25T10:39:23.072Z,100597.56
2022-10-25T10:44:29.393Z,100597.28
2022-10-25T10:49:41.962Z,100598.03
2022-10-25T10:54:51.008Z,100605.59
2022-10-25T10:59:58.943Z,100611.00
2022-10-25T11:05:22.922Z,100597.66
2022-10-25T11:10:32.681Z,100600.19
2022-10-25T11:16:32.657Z,100587.63
2022-10-25T11:22:16.928Z,100592.44
2022-10-25T11:27:38.829Z,100594.22
2022-10-25T11:33:40.744Z,100593.38
2022-10-25T11:39:07.795Z,100599.44
2022-10-25T11:45:01.331Z,100601.88
2022-10-25T11:50:24.190Z,100606.19
2022-10-25T11:55:40.585Z,100604.19
2022-10-25T12:00:57.641Z,100612.69
2022-10-25T12:06:17.080Z,100610.72
2022-10-25T12:11:32.099Z,100611.41
2022-10-25T12:16:40.543Z,100607.09
2022-10-25T12:21:55.714Z,100613.97
2022-10-25T12:27:06.905Z,100622.75
2022-10-25T12:32:19.079Z,100627.78
2022-10-25T12:37:36.230Z,100611.00
2022-10-25T12:42:49.379Z,100625.69
2022-10-25T12:48:14.974Z,100621.91
2022-10-25T12:54:16.996Z,100624.22
2022-10-25T12:59:46.633Z,100616.94
2022-10-25T13:05:13.090Z,100620.63
2022-10-25T13:10:22.435Z,100624.09
2022-10-25T13:15:43.562Z,100623.50
2022-10-25T13:20:52.682Z,100619.94
2022-10-25T13:26:08.700Z,100617.31
2022-10-25T13:31:48.719Z,100634.06
2022-10-25T13:36:57.831Z,100628.94
2022-10-25T13:42:23.694Z,100629.97
2022-10-25T13:47:42.230Z,100628.25
2022-10-25T13:53:03.019Z,100636.28
2022-10-25T13:58:46.008Z,100648.53
2022-10-25T14:04:15.506Z,100654.78
2022-10-25T14:09:34.439Z,100651.28
2022-10-25T14:14:56.669Z,100652.16
2022-10-25T14:20:30.452Z,100653.91
2022-10-25T14:25:42.483Z,100657.50
2022-10-25T14:31:00.628Z,100653.19
2022-10-25T14:36:28.789Z,100662.88
2022-10-25T14:41:53.472Z,100664.66
2022-10-25T14:47:04.191Z,100671.59
2022-10-25T14:52:11.798Z,100665.50
2022-10-25T14:57:32.769Z,100673.47
2022-10-25T15:02:41.874Z,100667.59
2022-10-25T15:07:51.814Z,100675.69
2022-10-25T15:13:32.694Z,100676.72
2022-10-25T15:18:40.739Z,100684.78
2022-10-25T15:24:20.960Z,100684.88
2022-10-25T15:29:52.971Z,100685.91
2022-10-25T15:35:04.040Z,100684.28
2022-10-25T15:40:18.060Z,100695.78
2022-10-25T15:45:25.244Z,100705.47
2022-10-25T15:50:42.957Z,100706.41
2022-10-25T15:55:58.027Z,100706.59
2022-10-25T16:01:04.236Z,100711.09
2022-10-25T16:06:19.978Z,100702.41
2022-10-25T16:11:29.102Z,100711.31
2022-10-25T16:16:42.168Z,100716.78
2022-10-25T16:22:01.971Z,100725.66
2022-10-25T16:27:14.406Z,100727.50
2022-10-25T16:32:21.405Z,100735.44
2022-10-25T16:37:28.305Z,100739.00
2022-10-25T16:42:37.485Z,100736.47
2022-10-25T16:47:43.881Z,100745.38
2022-10-25T16:52:50.371Z,100759.50
2022-10-25T16:58:00.203Z,100751.72
2022-10-25T17:03:08.504Z,100756.19
2022-10-25T17:08:16.759Z,100758.84
2022-10-25T17:13:26.931Z,100752.81
2022-10-25T17:18:35.654Z,100758.09
2022-10-25T17:24:10.022Z,100765.19
2022-10-25T17:29:19.168Z,100762.81
2022-10-25T17:34:27.923Z,100768.06
2022-10-25T17:39:34.936Z,100776.00
2022-10-25T17:44:45.251Z,100781.34
2022-10-25T17:50:02.173Z,100778.00
2022-10-25T17:55:11.768Z,100772.81
2022-10-25T18:00:25.183Z,100780.63
2022-10-25T18:05:33.279Z,100786.69
2022-10-25T18:10:40.083Z,100789.34
2022-10-25T18:15:54.728Z,100786.78
2022-10-25T18:21:10.889Z,100784.16
2022-10-25T18:26:20.023Z,100784.25
2022-10-25T18:31:29.091Z,100785.16
2022-10-25T18:36:35.829Z,100778.16
2022-10-25T18:41:43.713Z,100772.06
2022-10-25T18:46:57.207Z,100773.84
2022-10-25T18:52:03.959Z,100776.47
2022-10-25T18:57:15.376Z,100781.72
2022-10-25T19:02:27.579Z,100775.72
2022-10-25T19:07:37.039Z,100787.97
2022-10-25T19:12:45.842Z,100792.34
2022-10-25T19:17:54.858Z,100803.69
2022-10-25T19:23:04.105Z,100804.59
2022-10-25T19:28:19.344Z,100800.28
2022-10-25T19:33:29.783Z,100818.66
2022-10-25T19:38:37.956Z,100817.84
2022-10-25T19:43:53.742Z,100824.78
2022-10-25T19:49:09.697Z,100835.34
2022-10-25T19:54:19.979Z,100831.81
2022-10-25T19:59:31.022Z,100839.69
2022-10-25T20:04:39.358Z,100836.28
2022-10-25T20:09:51.045Z,100832.84
2022-10-25T20:15:02.366Z,100842.47
2022-10-25T20:20:14.257Z,100853.78
2022-10-25T20:25:21.149Z,100849.50
2022-10-25T20:30:30.282Z,100846.09
2022-10-25T20:35:40.759Z,100853.88
2022-10-25T20:40:47.301Z,100860.88
2022-10-25T20:45:58.226Z,100854.72
2022-10-25T20:51:15.398Z,100864.41
2022-10-25T20:56:25.626Z,100867.06
2022-10-25T21:01:32.263Z,100870.56
2022-10-25T21:06:39.838Z,100867.13
2022-10-25T21:11:46.157Z,100867.13
2022-10-25T21:16:52.498Z,100865.41
2022-10-25T21:22:00.879Z,100871.53
2022-10-25T21:27:08.493Z,100873.31
2022-10-25T21:32:14.666Z,100872.41
2022-10-25T21:37:22.295Z,100875.91
2022-10-25T21:42:31.423Z,100875.91
2022-10-25T21:47:37.703Z,100882.91
2022-10-25T21:52:48.646Z,100887.22
2022-10-25T21:57:56.112Z,100894.25
2022-10-25T22:03:02.640Z,100889.00
2022-10-25T22:08:13.832Z,100897.69
2022-10-25T22:13:23.240Z,100884.69
2022-10-25T22:18:32.180Z,100883.84
2022-10-25T22:23:40.842Z,100883.84
2022-10-25T22:28:50.313Z,100882.13
2022-10-25T22:33:57.681Z,100890.00
2022-10-25T22:39:10.228Z,100890.94
2022-10-25T22:44:26.043Z,100894.47
2022-10-25T22:49:36.721Z,100897.16
2022-10-25T22:54:45.009Z,100899.72
2022-10-25T22:59:50.844Z,100905.81
2022-10-25T23:04:59.302Z,100904.16
2022-10-25T23:10:07.843Z,100906.88
2022-10-25T23:15:13.885Z,100918.28
2022-10-25T23:20:26.320Z,100920.06
2022-10-25T23:25:36.717Z,100927.91
2022-10-25T23:31:01.821Z,100917.50
2022-10-25T23:36:12.317Z,100912.31
2022-10-25T23:41:21.591Z,100920.19
2022-10-25T23:46:27.650Z,100926.34
2022-10-25T23:51:34.581Z,100925.50
2022-10-25T23:56:41.880Z,100922.09
